createdAt,value
2019-03-05T00:02:12.147Z,93.60
2019-03-05T00:04:41.600Z,94.00
2019-03-05T00:07:11.034Z,93.40
2019-03-05T00:09:40.557Z,94.10
2019-03-05T00:12:10.010Z,94.00
2019-03-05T00:14:39.457Z,94.60
2019-03-05T00:17:08.907Z,94.60
2019-03-05T00:19:38.354Z,93.90
2019-03-05T00:22:07.974Z,93.50
2019-03-05T00:25:12.710Z,93.90
2019-03-05T00:28:03.279Z,94.10
2019-03-05T00:30:45.512Z,94.50
2019-03-05T00:33:25.304Z,93.90
2019-03-05T00:36:34.424Z,94.50
2019-03-05T00:39:49.922Z,94.70
2019-03-05T00:42:45.233Z,94.40
2019-03-05T00:45:41.115Z,94.50
2019-03-05T00:48:36.519Z,94.60
2019-03-05T00:51:56.249Z,94.30
2019-03-05T00:55:09.214Z,94.70
2019-03-05T00:57:53.856Z,94.50
2019-03-05T01:00:46.241Z,94.20
2019-03-05T01:03:47.294Z,94.90
2019-03-05T01:06:22.316Z,94.90
2019-03-05T01:08:52.308Z,94.90
2019-03-05T01:11:22.559Z,95.20
2019-03-05T01:13:52.187Z,95.80
2019-03-05T01:16:26.645Z,95.90
2019-03-05T01:18:56.106Z,96.00
2019-03-05T01:21:25.533Z,95.70
2019-03-05T01:23:54.988Z,95.40
2019-03-05T01:26:24.677Z,95.20
2019-03-05T01:28:54.133Z,95.00
2019-03-05T01:31:49.058Z,95.30
2019-03-05T01:34:29.875Z,95.60
2019-03-05T01:37:00.914Z,95.90
2019-03-05T01:39:49.342Z,96.00
2019-03-05T01:42:18.947Z,95.80
2019-03-05T01:44:48.424Z,95.50
2019-03-05T01:47:17.853Z,95.40
2019-03-05T01:49:47.302Z,94.90
2019-03-05T01:52:16.855Z,95.70
2019-03-05T01:54:46.317Z,95.60
2019-03-05T01:57:15.746Z,95.10
2019-03-05T01:59:45.213Z,95.50
2019-03-05T02:02:14.674Z,95.50
2019-03-05T02:04:44.184Z,95.70
2019-03-05T02:07:13.601Z,95.70
2019-03-05T02:09:43.026Z,95.80
2019-03-05T02:12:12.545Z,95.80
2019-03-05T02:14:41.968Z,95.90
2019-03-05T02:17:11.612Z,95.90
2019-03-05T02:19:43.078Z,96.10
2019-03-05T02:22:42.005Z,96.50
2019-03-05T02:25:35.326Z,95.90
2019-03-05T02:28:48.595Z,96.20
2019-03-05T02:32:05.670Z,96.40
2019-03-05T02:35:15.216Z,96.30
2019-03-05T02:38:44.177Z,96.90
2019-03-05T02:41:59.599Z,96.80
2019-03-05T02:45:20.032Z,96.70
2019-03-05T02:48:54.873Z,96.60
2019-03-05T02:52:11.320Z,97.30
2019-03-05T02:55:12.963Z,97.40
2019-03-05T02:57:40.793Z,97.10
2019-03-05T03:00:13.024Z,97.30
2019-03-05T03:02:54.235Z,97.10
2019-03-05T03:05:41.101Z,97.20
2019-03-05T03:08:10.556Z,97.20
2019-03-05T03:10:39.997Z,97.40
2019-03-05T03:13:09.514Z,97.40
2019-03-05T03:15:38.940Z,97.40
2019-03-05T03:18:08.451Z,97.90
2019-03-05T03:20:37.921Z,97.70
2019-03-05T03:23:07.445Z,97.70
2019-03-05T03:25:36.847Z,97.70
2019-03-05T03:28:06.519Z,97.60
2019-03-05T03:30:36.096Z,97.90
2019-03-05T03:33:05.528Z,97.70
2019-03-05T03:35:34.956Z,97.70
2019-03-05T03:38:04.416Z,97.70
2019-03-05T03:40:33.846Z,97.70
2019-03-05T03:43:03.356Z,98.10
2019-03-05T03:45:32.771Z,98.10
2019-03-05T03:48:02.351Z,97.80
2019-03-05T03:50:31.765Z,97.80
2019-03-05T03:53:01.205Z,98.00
2019-03-05T03:55:30.630Z,98.00
2019-03-05T03:58:00.092Z,98.10
2019-03-05T04:00:29.622Z,98.50
2019-03-05T04:02:59.074Z,98.70
2019-03-05T04:05:28.602Z,98.40
2019-03-05T04:07:58.048Z,98.80
2019-03-05T04:10:27.468Z,99.10
2019-03-05T04:12:56.989Z,98.90
2019-03-05T04:15:26.818Z,98.80
2019-03-05T04:17:56.325Z,99.00
2019-03-05T04:20:37.674Z,99.20
2019-03-05T04:23:07.122Z,99.00
2019-03-05T04:25:36.576Z,99.10
2019-03-05T04:28:06.063Z,99.20
2019-03-05T04:30:35.474Z,99.30
2019-03-05T04:33:04.930Z,99.40
2019-03-05T04:35:34.352Z,99.30
2019-03-05T04:38:03.769Z,99.90
2019-03-05T04:40:33.216Z,99.60
2019-03-05T04:43:02.650Z,99.40
2019-03-05T04:45:51.249Z,99.50
2019-03-05T04:48:20.676Z,99.50
2019-03-05T04:50:53.706Z,99.60
2019-03-05T04:53:23.178Z,99.50
2019-03-05T04:55:52.600Z,99.10
2019-03-05T04:58:22.086Z,99.20
2019-03-05T05:00:51.711Z,99.00
2019-03-05T05:03:21.130Z,99.20
2019-03-05T05:05:50.585Z,99.10
2019-03-05T05:08:20.008Z,99.10
2019-03-05T05:10:49.697Z,99.40
2019-03-05T05:13:19.120Z,99.30
2019-03-05T05:15:48.640Z,99.20
2019-03-05T05:18:18.066Z,99.10
2019-03-05T05:20:47.628Z,99.50
2019-03-05T05:23:17.049Z,99.40
2019-03-05T05:25:46.640Z,99.70
2019-03-05T05:28:16.053Z,99.00
2019-03-05T05:30:45.555Z,98.90
2019-03-05T05:33:15.023Z,99.40
2019-03-05T05:35:44.585Z,99.40
2019-03-05T05:38:14.278Z,99.50
2019-03-05T05:40:45.432Z,99.40
2019-03-05T05:43:20.875Z,99.40
2019-03-05T05:45:51.361Z,99.50
2019-03-05T05:48:20.882Z,99.40
2019-03-05T05:50:50.324Z,99.30
2019-03-05T05:53:19.745Z,99.60
2019-03-05T05:55:49.203Z,99.10
2019-03-05T05:58:18.617Z,99.80
2019-03-05T06:00:53.088Z,99.40
2019-03-05T06:03:22.547Z,99.60
2019-03-05T06:05:51.988Z,99.90
2019-03-05T06:08:21.483Z,99.40
2019-03-05T06:10:52.848Z,99.40
2019-03-05T06:13:22.084Z,99.60
2019-03-05T06:15:51.524Z,99.60
2019-03-05T06:18:21.021Z,99.50
2019-03-05T06:20:50.476Z,99.90
2019-03-05T06:23:19.897Z,99.60
2019-03-05T06:25:49.379Z,99.90
2019-03-05T06:28:18.792Z,99.50
2019-03-05T06:30:48.395Z,99.40
2019-03-05T06:33:18.486Z,99.70
2019-03-05T06:35:48.825Z,99.70
2019-03-05T06:38:18.259Z,99.20
2019-03-05T06:40:47.742Z,99.50
2019-03-05T06:43:17.210Z,99.40
2019-03-05T06:45:46.699Z,99.70
2019-03-05T06:48:17.266Z,99.70
2019-03-05T06:50:46.814Z,99.40
2019-03-05T06:53:16.556Z,99.30
2019-03-05T06:55:46.013Z,99.00
2019-03-05T06:58:15.452Z,99.10
2019-03-05T07:00:44.865Z,99.40
2019-03-05T07:03:16.270Z,99.40
2019-03-05T07:06:21.323Z,99.50
2019-03-05T07:08:59.223Z,99.10
2019-03-05T07:11:45.131Z,99.40
2019-03-05T07:14:19.954Z,99.70
2019-03-05T07:17:14.052Z,99.10
2019-03-05T07:20:07.535Z,98.90
2019-03-05T07:22:49.479Z,99.60
2019-03-05T07:25:18.975Z,99.20
2019-03-05T07:27:55.326Z,99.20
2019-03-05T07:30:26.283Z,99.20
2019-03-05T07:32:57.101Z,99.00
2019-03-05T07:35:27.930Z,98.90
2019-03-05T07:37:57.452Z,99.10
2019-03-05T07:40:26.948Z,99.00
2019-03-05T07:42:56.427Z,98.80
2019-03-05T07:45:25.883Z,99.20
2019-03-05T07:47:55.333Z,99.20
2019-03-05T07:50:25.007Z,99.20
2019-03-05T07:52:54.413Z,99.00
2019-03-05T07:55:23.832Z,99.30
2019-03-05T07:57:53.327Z,99.40
2019-03-05T08:00:23.110Z,99.30
2019-03-05T08:02:52.595Z,99.10
2019-03-05T08:05:22.039Z,99.00
2019-03-05T08:07:51.525Z,98.90
2019-03-05T08:10:29.652Z,98.90
2019-03-05T08:13:24.518Z,98.50
2019-03-05T08:16:12.403Z,98.10
2019-03-05T08:18:41.931Z,97.90
2019-03-05T08:21:11.400Z,97.60
2019-03-05T08:23:40.898Z,98.00
2019-03-05T08:26:10.313Z,98.40
2019-03-05T08:28:39.781Z,98.50
2019-03-05T08:31:09.239Z,98.50
2019-03-05T08:33:38.914Z,98.80
2019-03-05T08:36:08.339Z,98.60
2019-03-05T08:38:37.830Z,98.30
2019-03-05T08:41:07.274Z,97.50
2019-03-05T08:43:36.764Z,97.00
2019-03-05T08:46:06.199Z,97.00
2019-03-05T08:48:35.654Z,96.50
2019-03-05T08:51:05.102Z,96.90
2019-03-05T08:53:34.556Z,96.80
2019-03-05T08:56:04.932Z,96.40
2019-03-05T08:58:34.400Z,95.10
2019-03-05T09:01:04.104Z,95.10
2019-03-05T09:03:33.562Z,95.30
2019-03-05T09:06:03.016Z,95.00
2019-03-05T09:08:33.581Z,94.90
2019-03-05T09:11:03.042Z,94.40
2019-03-05T09:13:33.238Z,94.10
2019-03-05T09:16:02.794Z,93.70
2019-03-05T09:18:33.077Z,93.60
2019-03-05T09:21:02.552Z,93.70
2019-03-05T09:23:32.164Z,93.70
2019-03-05T09:26:01.732Z,93.50
2019-03-05T09:28:31.464Z,93.80
2019-03-05T09:31:00.990Z,93.10
2019-03-05T09:33:30.526Z,93.00
2019-03-05T09:36:00.184Z,92.60
2019-03-05T09:38:30.706Z,92.20
2019-03-05T09:41:00.518Z,91.60
2019-03-05T09:43:30.053Z,91.30
2019-03-05T09:45:59.756Z,91.00
2019-03-05T09:48:29.403Z,90.40
2019-03-05T09:50:59.052Z,91.10
2019-03-05T09:53:28.477Z,90.80
2019-03-05T09:55:57.934Z,90.60
2019-03-05T09:58:27.441Z,90.50
2019-03-05T10:00:57.629Z,90.50
2019-03-05T10:03:27.621Z,89.90
2019-03-05T10:05:57.053Z,90.00
2019-03-05T10:08:32.454Z,90.30
2019-03-05T10:10:57.594Z,90.20
2019-03-05T10:13:27.096Z,88.40
2019-03-05T10:15:56.827Z,89.40
2019-03-05T10:18:26.495Z,88.90
2019-03-05T10:20:56.200Z,86.60
2019-03-05T10:23:25.681Z,88.00
2019-03-05T10:25:56.367Z,83.80
2019-03-05T10:28:26.076Z,83.20
2019-03-05T10:30:55.573Z,82.60
2019-03-05T10:33:25.578Z,83.30
2019-03-05T10:35:55.414Z,82.10
2019-03-05T10:38:25.103Z,81.00
2019-03-05T10:40:54.857Z,78.50
2019-03-05T10:43:24.354Z,78.00
2019-03-05T10:45:54.027Z,78.30
2019-03-05T10:48:24.276Z,77.40
2019-03-05T10:50:53.877Z,77.00
2019-03-05T10:53:23.428Z,75.80
2019-03-05T10:55:53.060Z,76.40
2019-03-05T10:58:33.249Z,75.10
2019-03-05T11:00:53.995Z,75.60
2019-03-05T11:03:24.796Z,72.00
2019-03-05T11:05:54.523Z,73.60
2019-03-05T11:08:24.687Z,73.80
2019-03-05T11:10:54.886Z,74.50
2019-03-05T11:13:24.410Z,73.90
2019-03-05T11:15:56.162Z,72.40
2019-03-05T11:18:29.271Z,68.90
2019-03-05T11:20:56.811Z,68.30
2019-03-05T11:23:26.277Z,67.30
2019-03-05T11:25:55.716Z,66.60
2019-03-05T11:28:25.450Z,65.10
2019-03-05T11:30:55.070Z,64.90
2019-03-05T11:33:24.690Z,64.00
2019-03-05T11:35:54.131Z,63.00
2019-03-05T11:38:23.754Z,64.00
2019-03-05T11:40:54.853Z,65.00
2019-03-05T11:43:24.327Z,63.30
2019-03-05T11:45:53.844Z,65.40
2019-03-05T11:48:23.308Z,64.80
2019-03-05T11:50:52.839Z,64.30
2019-03-05T11:53:22.579Z,64.30
2019-03-05T11:55:52.036Z,65.90
2019-03-05T11:58:21.473Z,64.90
2019-03-05T12:01:00.486Z,64.80
2019-03-05T12:03:29.899Z,62.80
2019-03-05T12:05:59.533Z,63.60
2019-03-05T12:08:29.032Z,63.30
2019-03-05T12:10:58.517Z,64.40
2019-03-05T12:13:28.155Z,61.50
2019-03-05T12:15:58.344Z,62.20
2019-03-05T12:18:27.824Z,60.50
2019-03-05T12:20:58.240Z,63.00
2019-03-05T12:23:27.773Z,62.10
2019-03-05T12:25:57.317Z,63.50
2019-03-05T12:28:26.755Z,63.80
2019-03-05T12:30:56.205Z,64.10
2019-03-05T12:33:25.657Z,64.40
2019-03-05T12:35:55.118Z,65.00
2019-03-05T12:38:24.564Z,66.90
2019-03-05T12:40:54.002Z,65.80
2019-03-05T12:43:23.450Z,67.10
2019-03-05T12:45:52.878Z,67.70
2019-03-05T12:48:22.383Z,65.40
2019-03-05T12:50:52.001Z,67.30
2019-03-05T12:53:21.496Z,65.70
2019-03-05T12:55:51.003Z,65.70
2019-03-05T12:58:20.482Z,65.20
2019-03-05T13:00:49.909Z,66.40
2019-03-05T13:03:19.383Z,64.70
2019-03-05T13:05:48.818Z,68.70
2019-03-05T13:08:18.275Z,66.90
2019-03-05T13:10:47.816Z,68.60
2019-03-05T13:13:17.326Z,68.60
2019-03-05T13:15:46.946Z,69.70
2019-03-05T13:18:16.406Z,67.50
2019-03-05T13:20:45.839Z,67.10
2019-03-05T13:23:15.319Z,69.50
2019-03-05T13:25:44.710Z,67.90
2019-03-05T13:28:14.272Z,67.20
2019-03-05T13:30:43.727Z,68.80
2019-03-05T13:33:13.282Z,68.60
2019-03-05T13:35:42.737Z,68.60
2019-03-05T13:38:12.210Z,69.00
2019-03-05T13:40:41.638Z,67.80
2019-03-05T13:43:11.139Z,68.60
2019-03-05T13:45:43.849Z,69.00
2019-03-05T13:48:41.774Z,67.80
2019-03-05T13:51:56.188Z,68.90
2019-03-05T13:54:54.522Z,68.60
2019-03-05T13:58:03.682Z,68.20
2019-03-05T14:00:33.179Z,67.90
2019-03-05T14:03:19.655Z,67.30
2019-03-05T14:06:36.183Z,67.10
2019-03-05T14:09:16.831Z,68.30
2019-03-05T14:11:47.859Z,68.40
2019-03-05T14:14:22.135Z,69.80
2019-03-05T14:16:59.568Z,67.80
2019-03-05T14:19:29.210Z,69.20
2019-03-05T14:21:58.660Z,69.00
2019-03-05T14:24:28.230Z,69.10
2019-03-05T14:26:57.797Z,69.10
2019-03-05T14:29:29.293Z,69.70
2019-03-05T14:31:58.422Z,69.90
2019-03-05T14:34:27.985Z,69.50
2019-03-05T14:36:57.411Z,70.20
2019-03-05T14:39:31.082Z,71.80
2019-03-05T14:42:01.784Z,71.30
2019-03-05T14:44:39.810Z,71.70
2019-03-05T14:47:03.703Z,72.50
2019-03-05T14:49:33.326Z,74.20
2019-03-05T14:52:02.933Z,73.80
2019-03-05T14:54:32.390Z,73.60
2019-03-05T14:57:01.828Z,74.90
2019-03-05T14:59:31.314Z,74.50
2019-03-05T15:02:02.293Z,74.40
2019-03-05T15:04:32.004Z,74.70
2019-03-05T15:07:01.468Z,75.10
2019-03-05T15:09:30.933Z,75.00
2019-03-05T15:12:00.373Z,75.10
2019-03-05T15:14:29.861Z,74.40
2019-03-05T15:16:59.262Z,75.80
2019-03-05T15:19:28.771Z,75.40
2019-03-05T15:21:58.324Z,75.10
2019-03-05T15:24:27.892Z,74.90
2019-03-05T15:26:58.495Z,75.20
2019-03-05T15:29:27.967Z,76.00
2019-03-05T15:31:57.375Z,77.10
2019-03-05T15:34:26.804Z,77.50
2019-03-05T15:36:56.280Z,77.60
2019-03-05T15:39:25.758Z,78.80
2019-03-05T15:41:55.219Z,81.90
2019-03-05T15:44:24.703Z,85.20
2019-03-05T15:46:54.176Z,86.00
2019-03-05T15:49:23.564Z,86.50
2019-03-05T15:51:53.049Z,85.80
2019-03-05T15:57:02.774Z,85.90
2019-03-05T15:59:32.217Z,86.00
2019-03-05T16:02:01.845Z,86.30
2019-03-05T16:04:39.724Z,87.70
2019-03-05T16:07:10.864Z,88.50
2019-03-05T16:09:41.984Z,89.70
2019-03-05T16:12:11.914Z,89.70
2019-03-05T16:14:41.336Z,89.50
2019-03-05T16:17:13.194Z,90.40
2019-03-05T16:19:42.636Z,90.00
2019-03-05T16:22:14.294Z,90.40
2019-03-05T16:24:43.630Z,90.60
2019-03-05T16:27:13.083Z,91.10
2019-03-05T16:29:42.627Z,92.00
2019-03-05T16:32:23.094Z,92.10
2019-03-05T16:35:10.191Z,92.50
2019-03-05T16:38:01.365Z,94.40
2019-03-05T16:40:55.334Z,94.30
2019-03-05T16:43:53.731Z,93.70
2019-03-05T16:46:41.458Z,94.00
2019-03-05T16:49:28.433Z,95.60
2019-03-05T16:52:25.755Z,94.30
2019-03-05T16:55:16.887Z,95.30
2019-03-05T16:58:03.951Z,94.80
2019-03-05T17:00:48.680Z,94.80
2019-03-05T17:03:31.397Z,95.80
2019-03-05T17:06:10.607Z,96.70
2019-03-05T17:08:47.667Z,96.50
2019-03-05T17:11:39.202Z,96.70
2019-03-05T17:14:08.907Z,96.60
2019-03-05T17:16:38.742Z,96.80
2019-03-05T17:19:08.454Z,96.50
2019-03-05T17:21:38.424Z,96.90
2019-03-05T17:24:08.041Z,97.90
2019-03-05T17:26:37.477Z,97.40
2019-03-05T17:29:06.967Z,96.90
2019-03-05T17:31:36.392Z,97.00
2019-03-05T17:34:05.942Z,97.40
2019-03-05T17:36:35.359Z,97.10
2019-03-05T17:39:06.952Z,97.10
2019-03-05T17:41:36.373Z,97.40
2019-03-05T17:44:05.948Z,97.70
2019-03-05T17:46:35.361Z,97.40
2019-03-05T17:49:04.872Z,98.70
2019-03-05T17:51:34.310Z,98.00
2019-03-05T17:54:03.762Z,98.70
2019-03-05T17:56:33.231Z,98.20
2019-03-05T17:59:02.741Z,98.20
2019-03-05T18:01:32.268Z,98.20
2019-03-05T18:04:01.705Z,99.00
2019-03-05T18:06:31.136Z,99.40
2019-03-05T18:09:00.621Z,99.20
2019-03-05T18:11:30.491Z,99.90
2019-03-05T18:13:59.936Z,99.90
2019-03-05T18:16:29.363Z,99.90
2019-03-05T18:18:58.843Z,99.90
2019-03-05T18:21:28.293Z,99.90
2019-03-05T18:23:58.283Z,99.90
2019-03-05T18:26:27.740Z,99.90
2019-03-05T18:28:57.177Z,99.90
2019-03-05T18:31:26.589Z,99.90
2019-03-05T18:33:56.182Z,99.90
2019-03-05T18:36:25.632Z,99.90
2019-03-05T18:38:55.073Z,99.90
2019-03-05T18:41:24.559Z,99.90
2019-03-05T18:43:54.044Z,99.90
2019-03-05T18:46:23.466Z,99.90
2019-03-05T18:48:52.913Z,99.90
2019-03-05T18:51:22.429Z,99.90
2019-03-05T18:53:51.912Z,99.90
2019-03-05T18:56:21.326Z,99.90
2019-03-05T18:58:50.786Z,99.90
2019-03-05T19:01:20.254Z,99.90
2019-03-05T19:03:49.869Z,99.90
2019-03-05T19:06:19.364Z,99.90
2019-03-05T19:08:49.006Z,99.90
2019-03-05T19:11:20.269Z,99.90
2019-03-05T19:13:49.802Z,99.90
2019-03-05T19:16:19.421Z,99.90
2019-03-05T19:18:48.919Z,99.90
2019-03-05T19:21:18.432Z,99.90
2019-03-05T19:23:47.930Z,99.90
2019-03-05T19:26:17.625Z,99.90
2019-03-05T19:28:47.095Z,99.90
2019-03-05T19:31:23.952Z,99.90
2019-03-05T19:34:15.277Z,99.90
2019-03-05T19:36:45.151Z,99.90
2019-03-05T19:39:15.688Z,99.90
2019-03-05T19:41:45.319Z,99.90
2019-03-05T19:44:14.883Z,99.90
2019-03-05T19:46:44.302Z,99.90
2019-03-05T19:49:13.775Z,99.90
2019-03-05T19:51:43.479Z,99.90
2019-03-05T19:54:12.910Z,99.90
2019-03-05T19:56:42.341Z,99.90
2019-03-05T19:59:11.795Z,99.90
2019-03-05T20:01:44.368Z,99.90
2019-03-05T20:04:14.158Z,99.90
2019-03-05T20:06:44.048Z,99.90
2019-03-05T20:09:23.198Z,99.90
2019-03-05T20:11:52.846Z,99.90
2019-03-05T20:14:22.486Z,99.90
2019-03-05T20:16:51.933Z,99.90
2019-03-05T20:19:21.349Z,99.90
2019-03-05T20:21:50.794Z,99.90
2019-03-05T20:24:20.279Z,99.90
2019-03-05T20:26:49.856Z,99.90
2019-03-05T20:29:19.334Z,99.90
2019-03-05T20:31:48.797Z,99.90
2019-03-05T20:34:18.230Z,99.90
2019-03-05T20:36:47.708Z,99.90
2019-03-05T20:39:20.430Z,99.90
2019-03-05T20:41:49.866Z,99.90
2019-03-05T20:44:19.365Z,99.90
2019-03-05T20:46:48.802Z,99.90
2019-03-05T20:49:18.269Z,99.90
2019-03-05T20:51:47.689Z,99.90
2019-03-05T20:54:17.123Z,99.90
2019-03-05T20:56:46.640Z,99.90
2019-03-05T20:59:16.021Z,99.90
2019-03-05T21:01:45.530Z,99.90
2019-03-05T21:04:14.966Z,99.90
2019-03-05T21:06:44.445Z,99.90
2019-03-05T21:09:21.294Z,99.90
2019-03-05T21:11:50.748Z,99.90
2019-03-05T21:14:20.179Z,99.90
2019-03-05T21:16:49.626Z,99.90
2019-03-05T21:19:19.048Z,99.90
2019-03-05T21:21:48.492Z,99.90
2019-03-05T21:24:17.919Z,99.90
2019-03-05T21:26:47.372Z,99.90
2019-03-05T21:29:16.827Z,99.90
2019-03-05T21:31:46.280Z,99.90
2019-03-05T21:34:15.784Z,99.90
2019-03-05T21:36:45.656Z,99.90
2019-03-05T21:39:17.238Z,99.90
2019-03-05T21:41:46.714Z,99.90
2019-03-05T21:44:16.153Z,99.90
2019-03-05T21:46:45.643Z,99.90
2019-03-05T21:49:15.068Z,99.90
2019-03-05T21:51:44.551Z,99.90
2019-03-05T21:54:13.970Z,99.90
2019-03-05T21:56:43.468Z,99.90
2019-03-05T21:59:13.052Z,99.90
2019-03-05T22:01:42.492Z,99.90
2019-03-05T22:04:12.004Z,99.90
2019-03-05T22:06:41.437Z,99.90
2019-03-05T22:09:10.877Z,99.90
2019-03-05T22:11:40.346Z,99.90
2019-03-05T22:14:09.802Z,99.90
2019-03-05T22:16:39.213Z,99.90
2019-03-05T22:19:08.652Z,99.90
2019-03-05T22:21:38.066Z,99.90
2019-03-05T22:24:07.726Z,99.90
2019-03-05T22:26:37.173Z,99.90
2019-03-05T22:29:06.638Z,99.90
2019-03-05T22:31:36.068Z,99.90
2019-03-05T22:34:05.508Z,99.90
2019-03-05T22:36:34.950Z,99.90
2019-03-05T22:39:06.991Z,99.90
2019-03-05T22:41:38.306Z,99.90
2019-03-05T22:44:07.742Z,99.90
2019-03-05T22:46:37.162Z,99.90
2019-03-05T22:49:06.715Z,99.90
2019-03-05T22:51:36.134Z,99.90
2019-03-05T22:54:05.576Z,99.90
2019-03-05T22:56:35.001Z,99.90
2019-03-05T22:59:04.592Z,99.90
2019-03-05T23:01:38.102Z,99.90
2019-03-05T23:04:08.434Z,99.90
2019-03-05T23:06:37.853Z,99.90
2019-03-05T23:09:14.015Z,99.90
2019-03-05T23:11:43.530Z,99.90
2019-03-05T23:14:12.997Z,99.90
2019-03-05T23:16:42.486Z,99.90
2019-03-05T23:19:11.966Z,99.90
2019-03-05T23:21:42.085Z,99.90
2019-03-05T23:24:11.871Z,99.90
2019-03-05T23:26:41.325Z,99.90
2019-03-05T23:29:12.399Z,99.90
2019-03-05T23:31:42.205Z,99.90
2019-03-05T23:34:18.083Z,99.90
2019-03-05T23:36:42.734Z,99.90
2019-03-05T23:39:17.000Z,99.90
2019-03-05T23:41:46.422Z,99.90
2019-03-05T23:44:16.101Z,99.90
2019-03-05T23:46:45.511Z,99.90
2019-03-05T23:49:15.055Z,99.90
2019-03-05T23:51:44.514Z,99.90
2019-03-05T23:54:14.034Z,99.90
2019-03-05T23:56:43.446Z,99.90
2019-03-05T23:59:12.899Z,99.90
